createdAt,value
2017-04-22T00:00:42.041Z,1012.62
2017-04-22T00:01:52.328Z,1012.63
2017-04-22T00:03:02.631Z,1012.7
2017-04-22T00:04:12.857Z,1012.61
2017-04-22T00:05:22.839Z,1012.68
2017-04-22T00:06:32.803Z,1012.67
2017-04-22T00:07:42.771Z,1012.67
2017-04-22T00:08:52.736Z,1012.68
2017-04-22T00:10:03.312Z,1012.69
2017-04-22T00:11:13.591Z,1012.66
2017-04-22T00:12:23.745Z,1012.66
2017-04-22T00:13:33.730Z,1012.71
2017-04-22T00:14:44.013Z,1012.72
2017-04-22T00:15:54.545Z,1012.72
2017-04-22T00:17:04.844Z,1012.67
2017-04-22T00:18:14.814Z,1012.64
2017-04-22T00:19:24.791Z,1012.66
2017-04-22T00:20:34.772Z,1012.65
2017-04-22T00:21:45.303Z,1012.66
2017-04-22T00:22:55.581Z,1012.65
2017-04-22T00:24:05.551Z,1012.7
2017-04-22T00:25:15.842Z,1012.64
2017-04-22T00:26:26.369Z,1012.63
2017-04-22T00:27:36.584Z,1012.7
2017-04-22T00:28:46.573Z,1012.7
2017-04-22T00:29:56.729Z,1012.72
2017-04-22T00:31:07.008Z,1012.72
2017-04-22T00:32:16.969Z,1012.73
2017-04-22T00:33:27.187Z,1012.8
2017-04-22T00:34:37.181Z,1012.82
2017-04-22T00:35:47.458Z,1012.77
2017-04-22T00:36:57.412Z,1012.74
2017-04-22T00:38:07.693Z,1012.82
2017-04-22T00:39:18.288Z,1012.82
2017-04-22T00:40:28.314Z,1012.74
2017-04-22T00:41:38.589Z,1012.8
2017-04-22T00:42:48.552Z,1012.86
2017-04-22T00:43:58.559Z,1012.82
2017-04-22T00:45:09.088Z,1012.8
2017-04-22T00:46:19.368Z,1012.85
2017-04-22T00:47:29.645Z,1012.84
2017-04-22T00:48:39.924Z,1012.87
2017-04-22T00:49:50.236Z,1012.91
2017-04-22T00:51:00.771Z,1012.89
2017-04-22T00:52:11.055Z,1012.87
2017-04-22T00:53:21.028Z,1012.97
2017-04-22T00:54:31.305Z,1013.03
2017-04-22T00:55:41.586Z,1013.03
2017-04-22T00:56:51.803Z,1012.93
2017-04-22T00:58:02.083Z,1012.95
2017-04-22T00:59:12.359Z,1012.93
2017-04-22T01:00:22.655Z,1013.07
2017-04-22T01:01:32.623Z,1013.05
2017-04-22T01:02:43.150Z,1012.99
2017-04-22T01:03:53.486Z,1013.05
2017-04-22T01:05:04.023Z,1013.07
2017-04-22T01:06:14.312Z,1013.06
2017-04-22T01:07:24.598Z,1013.17
2017-04-22T01:08:35.132Z,1013.17
2017-04-22T01:09:45.421Z,1013.15
2017-04-22T01:10:55.699Z,1013.09
2017-04-22T01:12:05.975Z,1013.14
2017-04-22T01:13:16.264Z,1013.22
2017-04-22T01:14:26.503Z,1013.12
2017-04-22T01:15:36.472Z,1013.14
2017-04-22T01:16:46.432Z,1013.15
2017-04-22T01:17:56.735Z,1013.16
2017-04-22T01:19:07.089Z,1013.12
2017-04-22T01:20:17.619Z,1013.22
2017-04-22T01:21:27.906Z,1013.21
2017-04-22T01:22:37.880Z,1013.22
2017-04-22T01:23:48.161Z,1013.26
2017-04-22T01:24:58.448Z,1013.22
2017-04-22T01:26:08.675Z,1013.19
2017-04-22T01:27:18.649Z,1013.24
2017-04-22T01:28:28.930Z,1013.24
2017-04-22T01:29:39.219Z,1013.2
2017-04-22T01:30:49.499Z,1013.22
2017-04-22T01:32:00.024Z,1013.27
2017-04-22T01:33:10.003Z,1013.28
2017-04-22T01:34:20.298Z,1013.31
2017-04-22T01:35:30.585Z,1013.29
2017-04-22T01:36:40.238Z,1013.3
2017-04-22T01:37:50.476Z,1013.33
2017-04-22T01:39:00.790Z,1013.25
2017-04-22T01:40:11.267Z,1013.28
2017-04-22T01:41:21.570Z,1013.21
2017-04-22T01:42:31.537Z,1013.15
2017-04-22T01:43:42.275Z,1013.16
2017-04-22T01:44:52.766Z,1013.16
2017-04-22T01:46:02.740Z,1013.21
2017-04-22T01:47:12.704Z,1013.21
2017-04-22T01:48:22.677Z,1013.28
2017-04-22T01:49:33.215Z,1013.22
2017-04-22T01:50:43.190Z,1013.28
2017-04-22T01:51:53.468Z,1013.26
2017-04-22T01:53:03.749Z,1013.24
2017-04-22T01:54:14.026Z,1013.27
2017-04-22T01:55:24.565Z,1013.3
2017-04-22T01:56:34.236Z,1013.29
2017-04-22T01:57:44.540Z,1013.28
2017-04-22T01:58:54.514Z,1013.29
2017-04-22T02:00:04.483Z,1013.28
2017-04-22T02:01:15.031Z,1013.25
2017-04-22T02:02:25.327Z,1013.24
2017-04-22T02:03:35.605Z,1013.2
2017-04-22T02:04:45.874Z,1013.23
2017-04-22T02:05:56.150Z,1013.21
2017-04-22T02:07:06.413Z,1013.23
2017-04-22T02:08:16.689Z,1013.18
2017-04-22T02:09:26.348Z,1013.18
2017-04-22T02:10:36.627Z,1013.19
2017-04-22T02:11:46.918Z,1013.11
2017-04-22T02:12:57.126Z,1013.18
2017-04-22T02:14:07.411Z,1013.13
2017-04-22T02:15:17.380Z,1013.15
2017-04-22T02:16:27.661Z,1013.13
2017-04-22T02:17:37.636Z,1013.11
2017-04-22T02:18:48.257Z,1013.13
2017-04-22T02:19:58.631Z,1013.13
2017-04-22T02:21:08.910Z,1013.14
2017-04-22T02:22:19.057Z,1013.1
2017-04-22T02:23:29.331Z,1013.14
2017-04-22T02:24:39.861Z,1013.08
2017-04-22T02:25:50.139Z,1013.12
2017-04-22T02:26:59.801Z,1013.13
2017-04-22T02:28:09.764Z,1013.13
2017-04-22T02:29:19.765Z,1013.15
2017-04-22T02:30:29.995Z,1013.12
2017-04-22T02:31:40.274Z,1013.16
2017-04-22T02:32:50.242Z,1013.12
2017-04-22T02:34:00.534Z,1013.14
2017-04-22T02:35:10.809Z,1013.15
2017-04-22T02:36:21.337Z,1013.16
2017-04-22T02:37:31.618Z,1013.18
2017-04-22T02:38:41.899Z,1013.22
2017-04-22T02:39:52.182Z,1013.16
2017-04-22T02:41:02.455Z,1013.18
2017-04-22T02:42:13.034Z,1013.14
2017-04-22T02:43:23.312Z,1013.11
2017-04-22T02:44:33.603Z,1013.08
2017-04-22T02:45:43.882Z,1013.06
2017-04-22T02:46:54.159Z,1013.15
2017-04-22T02:48:04.428Z,1013.11
2017-04-22T02:49:14.706Z,1013.13
2017-04-22T02:50:24.997Z,1013.09
2017-04-22T02:51:35.296Z,1013.07
2017-04-22T02:52:45.575Z,1013.01
2017-04-22T02:53:56.110Z,1013.04
2017-04-22T02:55:05.636Z,1013.11
2017-04-22T02:56:16.201Z,1013.06
2017-04-22T02:57:26.524Z,1013.08
2017-04-22T02:58:37.007Z,1013.04
2017-04-22T02:59:47.540Z,1013.04
2017-04-22T03:00:57.564Z,1013
2017-04-22T03:02:07.833Z,1012.99
2017-04-22T03:03:18.118Z,1013.02
2017-04-22T03:04:28.396Z,1012.98
2017-04-22T03:05:38.972Z,1012.99
2017-04-22T03:06:49.243Z,1012.97
2017-04-22T03:07:59.214Z,1012.97
2017-04-22T03:09:09.193Z,1013
2017-04-22T03:10:19.478Z,1012.98
2017-04-22T03:11:30.010Z,1012.96
2017-04-22T03:12:40.296Z,1012.97
2017-04-22T03:13:50.590Z,1012.94
2017-04-22T03:15:00.859Z,1012.97
2017-04-22T03:16:10.833Z,1012.95
2017-04-22T03:17:21.414Z,1012.95
2017-04-22T03:18:31.389Z,1012.96
2017-04-22T03:19:41.671Z,1012.96
2017-04-22T03:20:51.953Z,1012.94
2017-04-22T03:22:01.607Z,1012.99
2017-04-22T03:23:12.131Z,1013.05
2017-04-22T03:24:22.102Z,1012.98
2017-04-22T03:25:32.085Z,1013.01
2017-04-22T03:26:42.051Z,1013.01
2017-04-22T03:27:52.013Z,1012.99
2017-04-22T03:29:02.555Z,1013.05
2017-04-22T03:30:13.248Z,1013.01
2017-04-22T03:31:23.531Z,1013.04
2017-04-22T03:32:33.196Z,1013.09
2017-04-22T03:33:43.165Z,1013.06
2017-04-22T03:34:53.069Z,1013.04
2017-04-22T03:36:03.035Z,1013.07
2017-04-22T03:37:13.310Z,1013.09
2017-04-22T03:38:23.276Z,1013.09
2017-04-22T03:39:33.562Z,1013.06
2017-04-22T03:40:44.089Z,1013.04
2017-04-22T03:41:54.374Z,1013.11
2017-04-22T03:43:04.660Z,1013.1
2017-04-22T03:44:14.952Z,1013.11
2017-04-22T03:45:25.237Z,1013.08
2017-04-22T03:46:35.763Z,1013.06
2017-04-22T03:47:46.042Z,1013.07
2017-04-22T03:48:56.201Z,1013.09
2017-04-22T03:50:06.487Z,1013.13
2017-04-22T03:51:16.767Z,1013.15
2017-04-22T03:52:27.346Z,1013.11
2017-04-22T03:53:36.998Z,1013.17
2017-04-22T03:54:46.972Z,1013.19
2017-04-22T03:55:56.930Z,1013.17
2017-04-22T03:57:07.214Z,1013.19
2017-04-22T03:58:17.422Z,1013.21
2017-04-22T03:59:27.400Z,1013.17
2017-04-22T04:00:37.745Z,1013.22
2017-04-22T04:01:47.709Z,1013.23
2017-04-22T04:02:58.086Z,1013.29
2017-04-22T04:04:08.627Z,1013.26
2017-04-22T04:05:19.232Z,1013.31
2017-04-22T04:06:29.195Z,1013.25
2017-04-22T04:07:39.771Z,1013.23
2017-04-22T04:08:49.737Z,1013.22
2017-04-22T04:10:00.312Z,1013.28
2017-04-22T04:11:10.583Z,1013.28
2017-04-22T04:12:20.273Z,1013.25
2017-04-22T04:13:30.556Z,1013.31
2017-04-22T04:14:40.205Z,1013.34
2017-04-22T04:15:50.123Z,1013.3
2017-04-22T04:17:00.589Z,1013.32
2017-04-22T04:18:10.563Z,1013.34
2017-04-22T04:19:20.858Z,1013.37
2017-04-22T04:20:31.135Z,1013.33
2017-04-22T04:21:41.669Z,1013.36
2017-04-22T04:22:51.650Z,1013.36
2017-04-22T04:24:01.929Z,1013.36
2017-04-22T04:25:12.206Z,1013.37
2017-04-22T04:26:22.173Z,1013.36
2017-04-22T04:27:32.917Z,1013.39
2017-04-22T04:28:43.209Z,1013.43
2017-04-22T04:29:53.172Z,1013.39
2017-04-22T04:31:03.145Z,1013.43
2017-04-22T04:32:13.110Z,1013.41
2017-04-22T04:33:23.632Z,1013.45
2017-04-22T04:34:33.907Z,1013.4
2017-04-22T04:35:44.188Z,1013.43
2017-04-22T04:36:54.158Z,1013.41
2017-04-22T04:38:04.453Z,1013.42
2017-04-22T04:39:14.678Z,1013.47
2017-04-22T04:40:24.953Z,1013.46
2017-04-22T04:41:34.935Z,1013.46
2017-04-22T04:42:45.205Z,1013.49
2017-04-22T04:43:55.177Z,1013.49
2017-04-22T04:45:05.703Z,1013.51
2017-04-22T04:46:15.673Z,1013.5
2017-04-22T04:47:25.950Z,1013.56
2017-04-22T04:48:36.220Z,1013.53
2017-04-22T04:49:46.501Z,1013.51
2017-04-22T04:50:57.151Z,1013.53
2017-04-22T04:52:07.337Z,1013.54
2017-04-22T04:53:17.561Z,1013.58
2017-04-22T04:54:27.848Z,1013.55
2017-04-22T04:55:38.163Z,1013.61
2017-04-22T04:56:48.385Z,1013.59
2017-04-22T04:57:58.351Z,1013.61
2017-04-22T04:59:08.009Z,1013.64
2017-04-22T05:00:17.987Z,1013.68
2017-04-22T05:01:27.971Z,1013.68
2017-04-22T05:02:38.188Z,1013.7
2017-04-22T05:03:48.494Z,1013.7
2017-04-22T05:04:58.781Z,1013.71
2017-04-22T05:06:09.063Z,1013.69
2017-04-22T05:07:19.330Z,1013.75
2017-04-22T05:08:30.287Z,1013.72
2017-04-22T05:09:40.574Z,1013.71
2017-04-22T05:10:50.696Z,1013.7
2017-04-22T05:12:00.981Z,1013.75
2017-04-22T05:13:11.266Z,1013.77
2017-04-22T05:14:21.817Z,1013.78
2017-04-22T05:15:32.096Z,1013.72
2017-04-22T05:16:42.070Z,1013.73
2017-04-22T05:17:52.348Z,1013.77
2017-04-22T05:19:02.629Z,1013.83
2017-04-22T05:20:13.155Z,1013.86
2017-04-22T05:21:23.434Z,1013.81
2017-04-22T05:22:33.713Z,1013.78
2017-04-22T05:23:43.997Z,1013.81
2017-04-22T05:24:54.313Z,1013.84
2017-04-22T05:26:04.842Z,1013.83
2017-04-22T05:27:15.217Z,1013.85
2017-04-22T05:28:25.506Z,1013.89
2017-04-22T05:29:35.476Z,1013.87
2017-04-22T05:30:45.944Z,1013.84
2017-04-22T05:31:56.157Z,1013.85
2017-04-22T05:33:06.232Z,1013.84
2017-04-22T05:34:16.518Z,1013.85
2017-04-22T05:35:26.796Z,1013.89
2017-04-22T05:36:36.762Z,1013.85
2017-04-22T05:37:47.010Z,1013.84
2017-04-22T05:38:57.314Z,1013.86
2017-04-22T05:40:07.599Z,1013.86
2017-04-22T05:41:17.570Z,1013.81
2017-04-22T05:42:27.546Z,1013.74
2017-04-22T05:43:38.066Z,1013.82
2017-04-22T05:44:48.047Z,1013.78
2017-04-22T05:45:58.006Z,1013.8
2017-04-22T05:47:07.978Z,1013.82
2017-04-22T05:48:18.261Z,1013.82
2017-04-22T05:49:28.916Z,1013.91
2017-04-22T05:50:39.194Z,1013.87
2017-04-22T05:51:49.179Z,1013.91
2017-04-22T05:52:59.453Z,1013.89
2017-04-22T05:54:09.737Z,1013.91
2017-04-22T05:55:19.645Z,1013.91
2017-04-22T05:56:29.928Z,1013.93
2017-04-22T05:57:40.201Z,1013.86
2017-04-22T05:58:50.496Z,1013.82
2017-04-22T06:00:00.471Z,1013.86
2017-04-22T06:01:11.007Z,1013.87
2017-04-22T06:02:21.276Z,1013.85
2017-04-22T06:03:31.816Z,1013.83
2017-04-22T06:04:42.181Z,1013.87
2017-04-22T06:05:52.457Z,1013.85
2017-04-22T06:07:02.675Z,1013.84
2017-04-22T06:08:12.958Z,1013.88
2017-04-22T06:09:22.923Z,1013.92
2017-04-22T06:10:32.918Z,1013.93
2017-04-22T06:11:43.197Z,1013.88
2017-04-22T06:12:53.103Z,1013.83
2017-04-22T06:14:03.390Z,1013.84
2017-04-22T06:15:13.690Z,1013.88
2017-04-22T06:16:23.761Z,1013.91
2017-04-22T06:17:34.036Z,1013.9
2017-04-22T06:18:44.569Z,1013.88
2017-04-22T06:19:54.558Z,1013.9
2017-04-22T06:21:04.209Z,1013.95
2017-04-22T06:22:14.498Z,1013.9
2017-04-22T06:23:24.776Z,1013.95
2017-04-22T06:24:35.311Z,1013.89
2017-04-22T06:25:45.598Z,1013.95
2017-04-22T06:26:55.568Z,1013.91
2017-04-22T06:28:05.229Z,1013.96
2017-04-22T06:29:15.202Z,1013.86
2017-04-22T06:30:25.473Z,1013.86
2017-04-22T06:31:35.448Z,1013.87
2017-04-22T06:32:45.811Z,1013.83
2017-04-22T06:33:56.102Z,1013.88
2017-04-22T06:35:06.393Z,1013.91
2017-04-22T06:36:16.991Z,1013.84
2017-04-22T06:37:27.042Z,1013.88
2017-04-22T06:38:37.199Z,1013.79
2017-04-22T06:39:47.233Z,1013.85
2017-04-22T06:40:57.520Z,1013.85
2017-04-22T06:42:08.049Z,1013.85
2017-04-22T06:43:18.326Z,1013.79
2017-04-22T06:44:28.300Z,1013.72
2017-04-22T06:45:38.714Z,1013.75
2017-04-22T06:46:48.689Z,1013.73
2017-04-22T06:47:59.226Z,1013.79
2017-04-22T06:49:09.511Z,1013.78
2017-04-22T06:50:19.794Z,1013.74
2017-04-22T06:51:30.096Z,1013.72
2017-04-22T06:52:40.387Z,1013.72
2017-04-22T06:53:50.608Z,1013.75
2017-04-22T06:55:00.293Z,1013.75
2017-04-22T06:56:10.617Z,1013.79
2017-04-22T06:57:20.896Z,1013.82
2017-04-22T06:58:30.857Z,1013.83
2017-04-22T06:59:41.131Z,1013.78
2017-04-22T07:00:51.406Z,1013.74
2017-04-22T07:02:01.397Z,1013.76
2017-04-22T07:03:11.065Z,1013.74
2017-04-22T07:04:21.366Z,1013.78
2017-04-22T07:05:31.960Z,1013.68
2017-04-22T07:06:42.238Z,1013.7
2017-04-22T07:07:52.214Z,1013.74
2017-04-22T07:09:02.195Z,1013.83
2017-04-22T07:10:12.485Z,1013.8
2017-04-22T07:11:23.034Z,1013.77
2017-04-22T07:12:33.321Z,1013.78
2017-04-22T07:13:43.290Z,1013.78
2017-04-22T07:14:53.668Z,1013.82
2017-04-22T07:16:03.970Z,1013.81
2017-04-22T07:17:14.724Z,1013.81
2017-04-22T07:18:24.710Z,1013.85
2017-04-22T07:19:35.325Z,1013.84
2017-04-22T07:20:45.612Z,1013.81
2017-04-22T07:21:56.058Z,1013.77
2017-04-22T07:23:05.984Z,1013.78
2017-04-22T07:24:16.267Z,1013.82
2017-04-22T07:25:26.545Z,1013.77
2017-04-22T07:26:36.941Z,1013.84
2017-04-22T07:27:47.225Z,1013.77
2017-04-22T07:28:57.767Z,1013.77
2017-04-22T07:30:07.116Z,1013.8
2017-04-22T07:31:17.077Z,1013.73
2017-04-22T07:32:27.355Z,1013.75
2017-04-22T07:33:37.017Z,1013.71
2017-04-22T07:34:47.572Z,1013.73
2017-04-22T07:35:57.572Z,1013.7
2017-04-22T07:37:07.541Z,1013.74
2017-04-22T07:38:17.812Z,1013.72
2017-04-22T07:39:27.814Z,1013.67
2017-04-22T07:40:38.032Z,1013.7
2017-04-22T07:41:48.023Z,1013.66
2017-04-22T07:42:57.998Z,1013.65
2017-04-22T07:44:08.277Z,1013.66
2017-04-22T07:45:18.576Z,1013.63
2017-04-22T07:46:29.100Z,1013.64
2017-04-22T07:47:39.069Z,1013.62
2017-04-22T07:48:48.927Z,1013.63
2017-04-22T07:49:59.230Z,1013.6
2017-04-22T07:51:09.616Z,1013.63
2017-04-22T07:52:24.240Z,1013.69
2017-04-22T07:53:34.519Z,1013.69
2017-04-22T07:54:44.489Z,1013.68
2017-04-22T07:55:54.775Z,1013.7
2017-04-22T07:57:05.057Z,1013.68
2017-04-22T07:58:15.280Z,1013.74
2017-04-22T07:59:25.268Z,1013.75
2017-04-22T08:00:35.548Z,1013.67
2017-04-22T08:01:45.834Z,1013.68
2017-04-22T08:02:56.118Z,1013.7
2017-04-22T08:04:06.346Z,1013.68
2017-04-22T08:05:16.640Z,1013.68
2017-04-22T08:06:26.610Z,1013.7
2017-04-22T08:07:36.585Z,1013.65
2017-04-22T08:08:46.566Z,1013.72
2017-04-22T08:09:57.105Z,1013.69
2017-04-22T08:11:07.389Z,1013.77
2017-04-22T08:12:17.047Z,1013.75
2017-04-22T08:13:27.040Z,1013.75
2017-04-22T08:14:37.327Z,1013.76
2017-04-22T08:15:47.611Z,1013.75
2017-04-22T08:16:57.901Z,1013.7
2017-04-22T08:18:08.190Z,1013.67
2017-04-22T08:19:18.478Z,1013.67
2017-04-22T08:20:28.875Z,1013.64
2017-04-22T08:21:39.411Z,1013.68
2017-04-22T08:22:49.885Z,1013.66
2017-04-22T08:23:59.894Z,1013.7
2017-04-22T08:25:09.557Z,1013.65
2017-04-22T08:26:19.851Z,1013.64
2017-04-22T08:27:30.079Z,1013.62
2017-04-22T08:28:40.369Z,1013.64
2017-04-22T08:29:50.350Z,1013.69
2017-04-22T08:31:00.642Z,1013.63
2017-04-22T08:32:10.613Z,1013.66
2017-04-22T08:33:21.164Z,1013.59
2017-04-22T08:34:31.458Z,1013.54
2017-04-22T08:35:41.736Z,1013.57
2017-04-22T08:36:52.021Z,1013.61
2017-04-22T08:38:02.308Z,1013.6
2017-04-22T08:39:12.595Z,1013.6
2017-04-22T08:40:22.878Z,1013.61
2017-04-22T08:41:33.173Z,1013.57
2017-04-22T08:42:43.466Z,1013.68
2017-04-22T08:43:53.753Z,1013.65
2017-04-22T08:45:03.666Z,1013.68
2017-04-22T08:46:13.328Z,1013.74
2017-04-22T08:47:23.307Z,1013.69
2017-04-22T08:48:33.286Z,1013.66
2017-04-22T08:49:43.577Z,1013.66
2017-04-22T08:50:54.081Z,1013.67
2017-04-22T08:52:06.739Z,1013.66
2017-04-22T08:53:16.716Z,1013.63
2017-04-22T08:54:27.008Z,1013.75
2017-04-22T08:55:37.290Z,1013.76
2017-04-22T08:56:47.877Z,1013.68
2017-04-22T08:57:58.158Z,1013.7
2017-04-22T08:59:08.453Z,1013.69
2017-04-22T09:00:18.745Z,1013.78
2017-04-22T09:01:28.723Z,1013.71
2017-04-22T09:02:38.653Z,1013.66
2017-04-22T09:03:48.936Z,1013.73
2017-04-22T09:04:59.232Z,1013.67
2017-04-22T09:06:09.209Z,1013.62
2017-04-22T09:07:19.529Z,1013.68
2017-04-22T09:08:30.065Z,1013.67
2017-04-22T09:09:40.377Z,1013.71
2017-04-22T09:10:50.366Z,1013.73
2017-04-22T09:12:00.661Z,1013.76
2017-04-22T09:13:10.649Z,1013.73
2017-04-22T09:14:21.190Z,1013.71
2017-04-22T09:15:31.471Z,1013.67
2017-04-22T09:16:41.137Z,1013.69
2017-04-22T09:17:51.423Z,1013.62
2017-04-22T09:19:01.734Z,1013.68
2017-04-22T09:20:12.296Z,1013.64
2017-04-22T09:21:22.596Z,1013.58
2017-04-22T09:22:32.899Z,1013.54
2017-04-22T09:23:43.222Z,1013.55
2017-04-22T09:24:53.208Z,1013.51
2017-04-22T09:26:03.458Z,1013.58
2017-04-22T09:27:13.788Z,1013.55
2017-04-22T09:28:24.095Z,1013.55
2017-04-22T09:29:34.384Z,1013.51
2017-04-22T09:30:44.701Z,1013.53
2017-04-22T09:31:55.268Z,1013.44
2017-04-22T09:33:05.583Z,1013.46
2017-04-22T09:34:15.934Z,1013.43
2017-04-22T09:35:25.916Z,1013.46
2017-04-22T09:36:35.895Z,1013.4
2017-04-22T09:37:46.498Z,1013.43
2017-04-22T09:38:56.806Z,1013.44
2017-04-22T09:40:07.119Z,1013.48
2017-04-22T09:41:17.411Z,1013.46
2017-04-22T09:42:27.734Z,1013.54
2017-04-22T09:43:37.969Z,1013.52
2017-04-22T09:44:48.271Z,1013.57
2017-04-22T09:45:58.261Z,1013.53
2017-04-22T09:47:08.399Z,1013.6
2017-04-22T09:48:18.400Z,1013.55
2017-04-22T09:49:28.336Z,1013.61
2017-04-22T09:50:38.028Z,1013.61
2017-04-22T09:51:48.325Z,1013.53
2017-04-22T09:52:58.402Z,1013.57
2017-04-22T09:54:08.413Z,1013.51
2017-04-22T09:55:18.985Z,1013.52
2017-04-22T09:56:29.299Z,1013.5
2017-04-22T09:57:38.967Z,1013.45
2017-04-22T09:58:49.265Z,1013.48
2017-04-22T09:59:59.595Z,1013.45
2017-04-22T10:01:10.162Z,1013.41
2017-04-22T10:02:20.156Z,1013.36
2017-04-22T10:03:30.471Z,1013.36
2017-04-22T10:04:40.456Z,1013.36
2017-04-22T10:05:50.144Z,1013.37
2017-04-22T10:07:00.091Z,1013.38
2017-04-22T10:08:10.383Z,1013.33
2017-04-22T10:09:20.694Z,1013.32
2017-04-22T10:10:30.665Z,1013.28
2017-04-22T10:11:40.951Z,1013.31
2017-04-22T10:12:51.547Z,1013.28
2017-04-22T10:14:01.908Z,1013.32
2017-04-22T10:15:12.190Z,1013.29
2017-04-22T10:16:22.608Z,1013.34
2017-04-22T10:17:33.273Z,1013.39
2017-04-22T10:18:43.556Z,1013.38
2017-04-22T10:19:53.707Z,1013.4
2017-04-22T10:21:03.061Z,1013.45
2017-04-22T10:22:13.410Z,1013.39
2017-04-22T10:23:23.392Z,1013.4
2017-04-22T10:24:33.805Z,1013.37
2017-04-22T10:25:43.799Z,1013.39
2017-04-22T10:26:53.483Z,1013.44
2017-04-22T10:28:03.809Z,1013.44
2017-04-22T10:29:14.117Z,1013.34
2017-04-22T10:30:24.390Z,1013.35
2017-04-22T10:31:34.400Z,1013.43
2017-04-22T10:32:44.720Z,1013.36
2017-04-22T10:33:54.729Z,1013.4
2017-04-22T10:35:05.045Z,1013.38
2017-04-22T10:36:15.594Z,1013.39
2017-04-22T10:37:25.905Z,1013.36
2017-04-22T10:38:36.196Z,1013.35
2017-04-22T10:39:46.501Z,1013.33
2017-04-22T10:40:56.839Z,1013.23
2017-04-22T10:42:07.413Z,1013.27
2017-04-22T10:43:17.708Z,1013.25
2017-04-22T10:44:27.692Z,1013.27
2017-04-22T10:45:37.665Z,1013.27
2017-04-22T10:46:47.961Z,1013.21
2017-04-22T10:47:57.879Z,1013.18
2017-04-22T10:49:08.159Z,1013.18
2017-04-22T10:50:18.154Z,1013.15
2017-04-22T10:51:28.452Z,1013.2
2017-04-22T10:52:38.454Z,1013.22
2017-04-22T10:53:48.992Z,1013.15
2017-04-22T10:54:59.290Z,1013.19
2017-04-22T10:56:08.970Z,1013.16
2017-04-22T10:57:19.271Z,1013.22
2017-04-22T10:58:29.564Z,1013.14
2017-04-22T10:59:40.153Z,1013.17
2017-04-22T11:00:50.449Z,1013.12
2017-04-22T11:02:00.874Z,1013.11
2017-04-22T11:03:10.859Z,1013.12
2017-04-22T11:04:20.862Z,1013.14
2017-04-22T11:05:31.150Z,1013.14
2017-04-22T11:06:41.438Z,1013.09
2017-04-22T11:07:51.419Z,1013.13
2017-04-22T11:09:01.405Z,1013.09
2017-04-22T11:10:11.386Z,1013.03
2017-04-22T11:11:21.936Z,1013.05
2017-04-22T11:12:32.424Z,1013.11
2017-04-22T11:13:42.114Z,1013.1
2017-04-22T11:14:52.097Z,1013.06
2017-04-22T11:16:02.384Z,1013.01
2017-04-22T11:17:12.940Z,1012.89
2017-04-22T11:18:23.218Z,1013.02
2017-04-22T11:19:33.530Z,1012.91
2017-04-22T11:20:43.514Z,1012.91
2017-04-22T11:21:53.821Z,1012.87
2017-04-22T11:23:04.381Z,1012.87
2017-04-22T11:24:14.357Z,1012.71
2017-04-22T11:25:24.650Z,1012.75
2017-04-22T11:26:35.000Z,1012.78
2017-04-22T11:27:45.293Z,1012.82
2017-04-22T11:28:55.541Z,1012.76
2017-04-22T11:30:05.521Z,1012.77
2017-04-22T11:31:15.808Z,1012.71
2017-04-22T11:32:26.104Z,1012.67
2017-04-22T11:33:36.082Z,1012.72
2017-04-22T11:34:45.996Z,1012.72
2017-04-22T11:35:56.285Z,1012.66
2017-04-22T11:37:06.279Z,1012.66
2017-04-22T11:38:16.580Z,1012.62
2017-04-22T11:39:26.572Z,1012.63
2017-04-22T11:40:37.133Z,1012.61
2017-04-22T11:41:47.420Z,1012.59
2017-04-22T11:42:57.075Z,1012.52
2017-04-22T11:44:07.058Z,1012.56
2017-04-22T11:45:17.363Z,1012.55
2017-04-22T11:46:27.913Z,1012.53
2017-04-22T11:47:38.335Z,1012.54
2017-04-22T11:48:48.623Z,1012.5
2017-04-22T11:49:58.940Z,1012.5
2017-04-22T11:51:08.911Z,1012.42
2017-04-22T11:52:18.828Z,1012.55
2017-04-22T11:53:28.835Z,1012.52
2017-04-22T11:54:39.115Z,1012.51
2017-04-22T11:55:49.413Z,1012.47
2017-04-22T11:56:59.072Z,1012.54
2017-04-22T11:58:09.342Z,1012.47
2017-04-22T11:59:19.341Z,1012.57
2017-04-22T12:00:29.318Z,1012.65
2017-04-22T12:01:39.613Z,1012.56
2017-04-22T12:02:49.599Z,1012.54
2017-04-22T12:04:00.136Z,1012.49
2017-04-22T12:05:10.499Z,1012.57
2017-04-22T12:06:19.859Z,1012.53
2017-04-22T12:07:29.847Z,1012.35
2017-04-22T12:08:39.829Z,1012.38
2017-04-22T12:09:50.055Z,1012.36
2017-04-22T12:11:00.044Z,1012.43
2017-04-22T12:12:10.031Z,1012.41
2017-04-22T12:13:20.326Z,1012.34
2017-04-22T12:14:30.312Z,1012.46
2017-04-22T12:15:40.545Z,1012.42
2017-04-22T12:16:50.527Z,1012.32
2017-04-22T12:18:00.495Z,1012.28
2017-04-22T12:19:10.789Z,1012.37
2017-04-22T12:20:20.827Z,1012.44
2017-04-22T12:21:31.366Z,1012.42
2017-04-22T12:22:41.023Z,1012.38
2017-04-22T12:23:50.995Z,1012.43
2017-04-22T12:25:00.977Z,1012.43
2017-04-22T12:26:10.944Z,1012.41
2017-04-22T12:27:21.173Z,1012.45
2017-04-22T12:28:31.447Z,1012.45
2017-04-22T12:29:41.752Z,1012.41
2017-04-22T12:30:52.042Z,1012.45
2017-04-22T12:32:02.019Z,1012.42
2017-04-22T12:33:12.294Z,1012.44
2017-04-22T12:34:22.588Z,1012.37
2017-04-22T12:35:32.868Z,1012.41
2017-04-22T12:36:42.842Z,1012.48
2017-04-22T12:37:53.174Z,1012.47
2017-04-22T12:39:03.482Z,1012.44
2017-04-22T12:40:13.143Z,1012.46
2017-04-22T12:41:23.132Z,1012.46
2017-04-22T12:42:33.123Z,1012.36
2017-04-22T12:43:43.126Z,1012.39
2017-04-22T12:44:53.723Z,1012.4
2017-04-22T12:46:04.032Z,1012.34
2017-04-22T12:47:14.327Z,1012.4
2017-04-22T12:48:24.630Z,1012.29
2017-04-22T12:49:34.943Z,1012.29
2017-04-22T12:50:45.477Z,1012.29
2017-04-22T12:51:55.461Z,1012.29
2017-04-22T12:53:05.451Z,1012.35
2017-04-22T12:54:15.568Z,1012.29
2017-04-22T12:55:25.547Z,1012.31
2017-04-22T12:56:36.088Z,1012.27
2017-04-22T12:57:46.241Z,1012.27
2017-04-22T12:58:56.557Z,1012.2
2017-04-22T13:00:07.040Z,1012.21
2017-04-22T13:01:16.735Z,1012.2
2017-04-22T13:02:27.336Z,1012.16
2017-04-22T13:03:37.644Z,1012.17
2017-04-22T13:04:47.939Z,1012.15
2017-04-22T13:05:57.935Z,1012.14
2017-04-22T13:07:08.256Z,1012.16
2017-04-22T13:08:18.813Z,1012.08
2017-04-22T13:09:28.483Z,1012.11
2017-04-22T13:10:38.470Z,1011.97
2017-04-22T13:11:48.755Z,1012
2017-04-22T13:12:58.778Z,1011.91
2017-04-22T13:14:09.233Z,1011.98
2017-04-22T13:15:19.249Z,1011.91
2017-04-22T13:16:29.561Z,1011.94
2017-04-22T13:17:39.557Z,1011.88
2017-04-22T13:18:49.900Z,1011.89
2017-04-22T13:20:00.457Z,1011.86
2017-04-22T13:21:10.768Z,1011.85
2017-04-22T13:22:20.752Z,1011.92
2017-04-22T13:23:31.049Z,1011.85
2017-04-22T13:24:41.340Z,1011.89
2017-04-22T13:25:51.271Z,1011.9
2017-04-22T13:27:01.585Z,1011.99
2017-04-22T13:28:11.907Z,1011.84
2017-04-22T13:29:21.911Z,1011.88
2017-04-22T13:30:32.205Z,1011.88
2017-04-22T13:31:42.828Z,1011.88
2017-04-22T13:32:52.843Z,1011.88
2017-04-22T13:34:03.152Z,1011.89
2017-04-22T13:35:13.476Z,1011.86
2017-04-22T13:36:23.803Z,1011.97
2017-04-22T13:37:33.720Z,1012.07
2017-04-22T13:38:44.041Z,1012.31
2017-04-22T13:39:54.126Z,1012.39
2017-04-22T13:41:04.439Z,1012.43
2017-04-22T13:42:14.431Z,1012.39
2017-04-22T13:43:25.051Z,1012.5
2017-04-22T13:44:35.043Z,1012.47
2017-04-22T13:45:45.353Z,1012.25
2017-04-22T13:46:55.057Z,1012.21
2017-04-22T13:48:05.091Z,1012.08
2017-04-22T13:49:15.700Z,1011.98
2017-04-22T13:50:25.685Z,1011.99
2017-04-22T13:51:35.688Z,1011.95
2017-04-22T13:52:45.712Z,1011.92
2017-04-22T13:53:55.424Z,1011.93
2017-04-22T13:55:05.727Z,1011.84
2017-04-22T13:56:16.043Z,1011.86
2017-04-22T13:57:26.350Z,1011.94
2017-04-22T13:58:36.686Z,1011.92
2017-04-22T13:59:47.016Z,1011.92
2017-04-22T14:00:57.323Z,1011.91
2017-04-22T14:02:07.674Z,1011.9
2017-04-22T14:03:17.996Z,1011.82
2017-04-22T14:04:28.016Z,1011.82
2017-04-22T14:05:38.314Z,1011.8
2017-04-22T14:06:48.926Z,1011.79
2017-04-22T14:07:59.235Z,1011.78
2017-04-22T14:09:09.266Z,1011.72
2017-04-22T14:10:19.266Z,1011.75
2017-04-22T14:11:29.594Z,1011.73